sensor_id;sensor_type;location;lat;lon;timestamp;pressure;altitude;pressure_sealevel;temperature;humidity
21664;BME280;10993;52.510;13.456;2023-02-12T00:03:38;56577.00;;;-146.93;86.96
21664;BME280;10993;52.510;13.456;2023-02-12T00:08:40;56617.47;;;-146.93;86.01
21664;BME280;10993;52.510;13.456;2023-02-12T00:13:40;56613.44;;;-146.93;86.02
21664;BME280;10993;52.510;13.456;2023-02-12T00:18:41;56498.03;;;-146.93;86.57
21664;BME280;10993;52.510;13.456;2023-02-12T00:23:43;56635.72;;;-146.93;86.79
21664;BME280;10993;52.510;13.456;2023-02-12T00:28:44;56601.28;;;-146.93;86.25
21664;BME280;10993;52.510;13.456;2023-02-12T00:33:44;56581.03;;;-146.93;85.44
21664;BME280;10993;52.510;13.456;2023-02-12T00:38:46;56621.53;;;-146.93;86.34
21664;BME280;10993;52.510;13.456;2023-02-12T00:43:47;56587.13;;;-146.93;85.83
21664;BME280;10993;52.510;13.456;2023-02-12T00:48:47;56593.19;;;-146.93;85.75
21664;BME280;10993;52.510;13.456;2023-02-12T00:53:49;56607.34;;;-146.93;85.87
21664;BME280;10993;52.510;13.456;2023-02-12T00:58:49;56611.41;;;-146.93;85.86
21664;BME280;10993;52.510;13.456;2023-02-12T01:03:50;56532.44;;;-146.93;85.71
21664;BME280;10993;52.510;13.456;2023-02-12T01:08:52;56605.34;;;-146.93;84.68
21664;BME280;10993;52.510;13.456;2023-02-12T01:13:52;56621.53;;;-146.93;84.74
21664;BME280;10993;52.510;13.456;2023-02-12T01:18:53;56500.06;;;-146.93;84.96
21664;BME280;10993;52.510;13.456;2023-02-12T01:23:56;56617.47;;;-146.93;84.78
21664;BME280;10993;52.510;13.456;2023-02-12T01:28:58;56609.38;;;-146.93;84.35
21664;BME280;10993;52.510;13.456;2023-02-12T01:34:00;56655.94;;;-146.93;84.69
21664;BME280;10993;52.510;13.456;2023-02-12T01:39:02;56609.38;;;-146.93;84.29
21664;BME280;10993;52.510;13.456;2023-02-12T01:44:09;56552.69;;;-146.93;83.73
21664;BME280;10993;52.510;13.456;2023-02-12T01:49:13;56633.69;;;-146.93;83.85
21664;BME280;10993;52.510;13.456;2023-02-12T01:54:18;56605.34;;;-146.93;84.09
21664;BME280;10993;52.510;13.456;2023-02-12T01:59:21;56633.69;;;-146.93;84.92
21664;BME280;10993;52.510;13.456;2023-02-12T02:04:24;56631.66;;;-146.93;84.17
21664;BME280;10993;52.510;13.456;2023-02-12T02:09:29;56617.47;;;-146.93;84.01
21664;BME280;10993;52.510;13.456;2023-02-12T02:14:29;56613.44;;;-146.93;83.71
21664;BME280;10993;52.510;13.456;2023-02-12T02:19:46;56623.56;;;-146.93;84.24
21664;BME280;10993;52.510;13.456;2023-02-12T02:25:12;56625.59;;;-146.93;83.27
21664;BME280;10993;52.510;13.456;2023-02-12T02:30:27;56629.63;;;-146.93;83.33
21664;BME280;10993;52.510;13.456;2023-02-12T02:35:36;56653.94;;;-146.93;83.67
21664;BME280;10993;52.510;13.456;2023-02-12T02:40:45;56621.53;;;-146.93;83.25
21664;BME280;10993;52.510;13.456;2023-02-12T02:45:52;56617.47;;;-146.93;83.50
21664;BME280;10993;52.510;13.456;2023-02-12T02:50:57;56619.50;;;-146.93;82.86
21664;BME280;10993;52.510;13.456;2023-02-12T02:56:03;56603.31;;;-146.93;83.40
21664;BME280;10993;52.510;13.456;2023-02-12T03:01:09;56621.53;;;-146.93;83.48
21664;BME280;10993;52.510;13.456;2023-02-12T03:06:17;56664.06;;;-146.93;83.09
21664;BME280;10993;52.510;13.456;2023-02-12T03:11:22;56637.72;;;-146.93;83.13
21664;BME280;10993;52.510;13.456;2023-02-12T03:16:26;56639.75;;;-146.93;82.91
21664;BME280;10993;52.510;13.456;2023-02-12T03:21:31;56445.38;;;-146.93;83.58
21664;BME280;10993;52.510;13.456;2023-02-12T03:26:38;56552.69;;;-146.93;83.28
21664;BME280;10993;52.510;13.456;2023-02-12T03:31:50;56641.78;;;-146.93;82.78
21664;BME280;10993;52.510;13.456;2023-02-12T03:36:58;56603.31;;;-146.93;83.52
21664;BME280;10993;52.510;13.456;2023-02-12T03:42:04;56627.59;;;-146.93;83.20
21664;BME280;10993;52.510;13.456;2023-02-12T03:47:19;56635.72;;;-146.93;82.48
21664;BME280;10993;52.510;13.456;2023-02-12T03:52:20;56633.69;;;-146.93;82.88
21664;BME280;10993;52.510;13.456;2023-02-12T03:57:22;57218.88;;;-146.93;83.00
21664;BME280;10993;52.510;13.456;2023-02-12T04:02:31;56629.63;;;-146.93;83.08
21664;BME280;10993;52.510;13.456;2023-02-12T04:07:31;56572.94;;;-146.93;83.74
21664;BME280;10993;52.510;13.456;2023-02-12T04:12:38;56595.22;;;-146.93;83.20
21664;BME280;10993;52.510;13.456;2023-02-12T04:17:48;56613.44;;;-146.93;83.50
21664;BME280;10993;52.510;13.456;2023-02-12T04:22:55;56637.72;;;-146.93;83.88
21664;BME280;10993;52.510;13.456;2023-02-12T04:28:05;56583.06;;;-146.93;84.00
21664;BME280;10993;52.510;13.456;2023-02-12T04:33:14;56617.47;;;-146.93;84.71
21664;BME280;10993;52.510;13.456;2023-02-12T04:38:20;56540.53;;;-146.93;84.85
21664;BME280;10993;52.510;13.456;2023-02-12T04:43:26;56589.13;;;-146.93;85.99
21664;BME280;10993;52.510;13.456;2023-02-12T04:48:28;56617.47;;;-146.93;86.25
21664;BME280;10993;52.510;13.456;2023-02-12T04:53:28;56605.34;;;-146.93;86.61
21664;BME280;10993;52.510;13.456;2023-02-12T04:58:29;56619.50;;;-146.93;87.18
21664;BME280;10993;52.510;13.456;2023-02-12T05:03:30;56574.97;;;-146.93;88.21
21664;BME280;10993;52.510;13.456;2023-02-12T05:08:31;56589.13;;;-146.93;87.95
21664;BME280;10993;52.510;13.456;2023-02-12T05:13:31;56589.13;;;-146.93;87.51
21664;BME280;10993;52.510;13.456;2023-02-12T05:18:34;56613.44;;;-146.93;87.84
21664;BME280;10993;52.510;13.456;2023-02-12T05:23:37;56564.84;;;-146.93;88.18
21664;BME280;10993;52.510;13.456;2023-02-12T05:28:37;56583.06;;;-146.93;87.20
21664;BME280;10993;52.510;13.456;2023-02-12T05:33:42;56605.34;;;-146.93;86.22
21664;BME280;10993;52.510;13.456;2023-02-12T05:38:43;56629.63;;;-146.93;85.90
21664;BME280;10993;52.510;13.456;2023-02-12T05:43:43;56611.41;;;-146.93;85.01
21664;BME280;10993;52.510;13.456;2023-02-12T05:48:45;56601.28;;;-146.93;84.36
21664;BME280;10993;52.510;13.456;2023-02-12T05:53:47;56581.03;;;-146.93;83.58
21664;BME280;10993;52.510;13.456;2023-02-12T05:58:51;56631.66;;;-146.93;83.22
21664;BME280;10993;52.510;13.456;2023-02-12T06:03:54;56601.28;;;-146.93;83.25
21664;BME280;10993;52.510;13.456;2023-02-12T06:08:54;56621.53;;;-146.93;83.09
21664;BME280;10993;52.510;13.456;2023-02-12T06:13:55;56635.72;;;-146.93;82.41
21664;BME280;10993;52.510;13.456;2023-02-12T06:18:57;56601.28;;;-146.93;83.21
21664;BME280;10993;52.510;13.456;2023-02-12T06:23:59;56603.31;;;-146.93;83.39
21664;BME280;10993;52.510;13.456;2023-02-12T06:29:00;56609.38;;;-146.93;83.08
21664;BME280;10993;52.510;13.456;2023-02-12T06:34:06;56583.06;;;-146.93;82.76
21664;BME280;10993;52.510;13.456;2023-02-12T06:39:07;56603.31;;;-146.93;82.42
21664;BME280;10993;52.510;13.456;2023-02-12T06:44:09;56427.16;;;-146.93;82.04
21664;BME280;10993;52.510;13.456;2023-02-12T06:49:12;56599.25;;;-146.93;82.29
21664;BME280;10993;52.510;13.456;2023-02-12T06:54:15;56520.28;;;-146.93;82.07
21664;BME280;10993;52.510;13.456;2023-02-12T06:59:16;56601.28;;;-146.93;81.93
21664;BME280;10993;52.510;13.456;2023-02-12T07:04:17;56595.22;;;-146.93;81.49
21664;BME280;10993;52.510;13.456;2023-02-12T07:09:18;56639.75;;;-146.93;81.19
21664;BME280;10993;52.510;13.456;2023-02-12T07:14:18;56666.06;;;-146.93;80.33
21664;BME280;10993;52.510;13.456;2023-02-12T07:19:20;56465.63;;;-146.93;79.91
21664;BME280;10993;52.510;13.456;2023-02-12T07:24:21;56637.72;;;-146.93;78.44
21664;BME280;10993;52.510;13.456;2023-02-12T07:29:21;56605.34;;;-146.93;78.07
21664;BME280;10993;52.510;13.456;2023-02-12T07:34:23;56668.09;;;-146.93;76.57
21664;BME280;10993;52.510;13.456;2023-02-12T07:39:23;56599.25;;;-146.93;76.17
21664;BME280;10993;52.510;13.456;2023-02-12T07:44:23;56649.88;;;-146.93;75.41
21664;BME280;10993;52.510;13.456;2023-02-12T07:49:25;57779.88;;;-146.93;75.34
21664;BME280;10993;52.510;13.456;2023-02-12T07:54:26;56674.19;;;-146.93;74.30
21664;BME280;10993;52.510;13.456;2023-02-12T07:59:26;57265.47;;;-146.93;74.84
21664;BME280;10993;52.510;13.456;2023-02-12T08:04:29;56674.19;;;-146.93;74.89
21664;BME280;10993;52.510;13.456;2023-02-12T08:09:29;56649.88;;;-146.93;72.83
21664;BME280;10993;52.510;13.456;2023-02-12T08:14:30;56653.94;;;-146.93;72.17
21664;BME280;10993;52.510;13.456;2023-02-12T08:19:32;56686.31;;;-146.93;72.04
21664;BME280;10993;52.510;13.456;2023-02-12T08:24:32;56641.78;;;-146.93;71.67
21664;BME280;10993;52.510;13.456;2023-02-12T08:29:32;56641.78;;;-146.93;71.99
21664;BME280;10993;52.510;13.456;2023-02-12T08:34:36;56666.06;;;-146.93;71.49
21664;BME280;10993;52.510;13.456;2023-02-12T08:39:37;56680.25;;;-146.93;70.60
21664;BME280;10993;52.510;13.456;2023-02-12T08:44:37;56674.19;;;-146.93;70.30
21664;BME280;10993;52.510;13.456;2023-02-12T08:49:41;56540.53;;;-146.93;68.92
21664;BME280;10993;52.510;13.456;2023-02-12T08:54:41;56682.28;;;-146.93;69.25
21664;BME280;10993;52.510;13.456;2023-02-12T08:59:42;56986.00;;;-146.93;67.87
21664;BME280;10993;52.510;13.456;2023-02-12T09:04:43;56678.22;;;-146.93;68.41
21664;BME280;10993;52.510;13.456;2023-02-12T09:09:44;56698.47;;;-146.93;66.16
21664;BME280;10993;52.510;13.456;2023-02-12T09:14:44;56745.03;;;-146.93;67.19
21664;BME280;10993;52.510;13.456;2023-02-12T09:19:46;56690.38;;;-146.93;66.46
21664;BME280;10993;52.510;13.456;2023-02-12T09:24:46;56747.06;;;-146.93;66.34
21664;BME280;10993;52.510;13.456;2023-02-12T09:29:46;56686.31;;;-146.93;66.74
21664;BME280;10993;52.510;13.456;2023-02-12T09:34:48;56743.03;;;-146.93;66.18
21664;BME280;10993;52.510;13.456;2023-02-12T09:39:48;56702.53;;;-146.93;65.90
21664;BME280;10993;52.510;13.456;2023-02-12T09:44:54;56724.78;;;-146.93;65.94
21664;BME280;10993;52.510;13.456;2023-02-12T09:50:09;56755.16;;;-146.93;65.22
21664;BME280;10993;52.510;13.456;2023-02-12T09:55:13;56745.03;;;-146.93;64.23
21664;BME280;10993;52.510;13.456;2023-02-12T10:00:18;56738.97;;;-146.93;64.04
21664;BME280;10993;52.510;13.456;2023-02-12T10:05:24;56730.88;;;-146.93;66.44
21664;BME280;10993;52.510;13.456;2023-02-12T10:10:38;56714.66;;;-146.93;66.07
21664;BME280;10993;52.510;13.456;2023-02-12T10:15:52;56702.53;;;-146.93;66.44
21664;BME280;10993;52.510;13.456;2023-02-12T10:21:03;56743.03;;;-146.93;66.23
21664;BME280;10993;52.510;13.456;2023-02-12T10:26:16;56732.91;;;-146.93;66.01
21664;BME280;10993;52.510;13.456;2023-02-12T10:31:23;56775.41;;;-146.93;65.62
21664;BME280;10993;52.510;13.456;2023-02-12T10:36:32;56779.47;;;-146.93;63.66
21664;BME280;10993;52.510;13.456;2023-02-12T10:41:41;56787.56;;;-146.93;62.37
21664;BME280;10993;52.510;13.456;2023-02-12T10:46:42;56791.63;;;-146.93;62.60
21664;BME280;10993;52.510;13.456;2023-02-12T10:52:02;56749.09;;;-146.93;63.60
21664;BME280;10993;52.510;13.456;2023-02-12T10:57:07;56716.69;;;-146.93;67.71
21664;BME280;10993;52.510;13.456;2023-02-12T11:02:21;56734.91;;;-146.93;69.09
21664;BME280;10993;52.510;13.456;2023-02-12T11:07:24;56720.75;;;-146.93;72.33
21664;BME280;10993;52.510;13.456;2023-02-12T11:12:31;56690.38;;;-146.93;73.87
21664;BME280;10993;52.510;13.456;2023-02-12T11:17:35;56657.97;;;-146.93;74.82
21664;BME280;10993;52.510;13.456;2023-02-12T11:22:48;56714.66;;;-146.93;73.96
21664;BME280;10993;52.510;13.456;2023-02-12T11:28:03;56698.47;;;-146.93;74.40
21664;BME280;10993;52.510;13.456;2023-02-12T11:33:15;56686.31;;;-146.93;75.49
21664;BME280;10993;52.510;13.456;2023-02-12T11:38:22;57289.75;;;-146.93;76.82
21664;BME280;10993;52.510;13.456;2023-02-12T11:43:24;56629.63;;;-146.93;76.52
21664;BME280;10993;52.510;13.456;2023-02-12T11:48:29;56734.91;;;-146.93;74.96
21664;BME280;10993;52.510;13.456;2023-02-12T11:53:34;56724.78;;;-146.93;71.88
21664;BME280;10993;52.510;13.456;2023-02-12T11:58:36;56664.06;;;-146.93;68.75
21664;BME280;10993;52.510;13.456;2023-02-12T12:03:42;56819.97;;;-146.93;66.38
21664;BME280;10993;52.510;13.456;2023-02-12T12:08:50;56775.41;;;-146.93;67.34
21664;BME280;10993;52.510;13.456;2023-02-12T12:13:57;56728.84;;;-146.93;70.27
21664;BME280;10993;52.510;13.456;2023-02-12T12:19:02;56905.00;;;-146.93;72.53
21664;BME280;10993;52.510;13.456;2023-02-12T12:24:33;56761.25;;;-146.93;71.50
21664;BME280;10993;52.510;13.456;2023-02-12T12:29:43;56783.50;;;-146.93;67.88
21664;BME280;10993;52.510;13.456;2023-02-12T12:34:47;56759.22;;;-146.93;67.12
21664;BME280;10993;52.510;13.456;2023-02-12T12:39:59;56757.19;;;-146.93;66.92
21664;BME280;10993;52.510;13.456;2023-02-12T12:45:16;56791.63;;;-146.93;67.07
21664;BME280;10993;52.510;13.456;2023-02-12T12:50:31;56771.38;;;-146.93;66.61
21664;BME280;10993;52.510;13.456;2023-02-12T12:55:55;56795.66;;;-146.93;63.09
21664;BME280;10993;52.510;13.456;2023-02-12T13:01:19;56751.13;;;-146.93;62.89
21664;BME280;10993;52.510;13.456;2023-02-12T13:06:29;56785.53;;;-146.93;64.14
21664;BME280;10993;52.510;13.456;2023-02-12T13:11:47;56795.66;;;-146.93;61.61
21664;BME280;10993;52.510;13.456;2023-02-12T13:16:59;56824.00;;;-146.93;62.46
21664;BME280;10993;52.510;13.456;2023-02-12T13:22:09;56698.47;;;-146.93;61.22
21664;BME280;10993;52.510;13.456;2023-02-12T13:27:15;56803.75;;;-146.93;62.91
21664;BME280;10993;52.510;13.456;2023-02-12T13:32:21;56781.50;;;-146.93;61.55
21664;BME280;10993;52.510;13.456;2023-02-12T13:37:31;56771.38;;;-146.93;61.64
21664;BME280;10993;52.510;13.456;2023-02-12T13:42:42;56809.84;;;-146.93;59.58
21664;BME280;10993;52.510;13.456;2023-02-12T13:47:51;56759.22;;;-146.93;60.83
21664;BME280;10993;52.510;13.456;2023-02-12T13:52:58;56771.38;;;-146.93;62.36
21664;BME280;10993;52.510;13.456;2023-02-12T13:58:39;56738.97;;;-146.93;63.16
21664;BME280;10993;52.510;13.456;2023-02-12T14:03:39;56763.28;;;-146.93;61.07
21664;BME280;10993;52.510;13.456;2023-02-12T14:08:41;56741.00;;;-146.93;61.61
21664;BME280;10993;52.510;13.456;2023-02-12T14:13:50;56779.47;;;-146.93;61.64
21664;BME280;10993;52.510;13.456;2023-02-12T14:18:51;56763.28;;;-146.93;63.18
21664;BME280;10993;52.510;13.456;2023-02-12T14:23:52;56718.72;;;-146.93;61.89
21664;BME280;10993;52.510;13.456;2023-02-12T14:28:56;56708.59;;;-146.93;61.66
21664;BME280;10993;52.510;13.456;2023-02-12T14:39:47;56736.94;;;-146.93;62.10
21664;BME280;10993;52.510;13.456;2023-02-12T14:44:54;56568.88;;;-146.93;62.90
21664;BME280;10993;52.510;13.456;2023-02-12T14:50:00;56724.78;;;-146.93;62.28
21664;BME280;10993;52.510;13.456;2023-02-12T14:55:03;56728.84;;;-146.93;62.07
21664;BME280;10993;52.510;13.456;2023-02-12T15:00:22;56724.78;;;-146.93;63.36
21664;BME280;10993;52.510;13.456;2023-02-12T15:05:27;56720.75;;;-146.93;64.28
21664;BME280;10993;52.510;13.456;2023-02-12T15:10:30;56716.69;;;-146.93;64.07
21664;BME280;10993;52.510;13.456;2023-02-12T15:15:36;56690.38;;;-146.93;65.19
21664;BME280;10993;52.510;13.456;2023-02-12T15:20:43;56708.59;;;-146.93;65.93
21664;BME280;10993;52.510;13.456;2023-02-12T15:25:45;56710.63;;;-146.93;66.32
21664;BME280;10993;52.510;13.456;2023-02-12T15:30:47;56688.34;;;-146.93;66.42
21664;BME280;10993;52.510;13.456;2023-02-12T15:35:47;56710.63;;;-146.93;66.90
21664;BME280;10993;52.510;13.456;2023-02-12T15:40:56;56668.09;;;-146.93;67.76
21664;BME280;10993;52.510;13.456;2023-02-12T15:45:58;56706.56;;;-146.93;67.68
21664;BME280;10993;52.510;13.456;2023-02-12T15:51:04;56712.66;;;-146.93;67.49
21664;BME280;10993;52.510;13.456;2023-02-12T15:56:11;56607.34;;;-146.93;68.06
21664;BME280;10993;52.510;13.456;2023-02-12T16:01:16;56724.78;;;-146.93;68.26
21664;BME280;10993;52.510;13.456;2023-02-12T16:06:18;56714.66;;;-146.93;68.72
21664;BME280;10993;52.510;13.456;2023-02-12T16:11:20;56670.13;;;-146.93;69.32
21664;BME280;10993;52.510;13.456;2023-02-12T16:16:25;56670.13;;;-146.93;69.69
21664;BME280;10993;52.510;13.456;2023-02-12T16:21:27;56564.84;;;-146.93;70.05
21664;BME280;10993;52.510;13.456;2023-02-12T16:26:27;56651.91;;;-146.93;70.28
21664;BME280;10993;52.510;13.456;2023-02-12T16:31:29;56706.56;;;-146.93;70.29
21664;BME280;10993;52.510;13.456;2023-02-12T16:36:30;56651.91;;;-146.93;71.35
21664;BME280;10993;52.510;13.456;2023-02-12T16:41:32;56657.97;;;-146.93;71.59
21664;BME280;10993;52.510;13.456;2023-02-12T16:46:44;56678.22;;;-146.93;71.79
21664;BME280;10993;52.510;13.456;2023-02-12T16:51:46;56672.16;;;-146.93;72.25
21664;BME280;10993;52.510;13.456;2023-02-12T16:56:46;56615.47;;;-146.93;72.84
21664;BME280;10993;52.510;13.456;2023-02-12T17:02:00;56651.91;;;-146.93;72.43
21664;BME280;10993;52.510;13.456;2023-02-12T17:07:00;56674.19;;;-146.93;72.82
21664;BME280;10993;52.510;13.456;2023-02-12T17:12:04;56643.81;;;-146.93;72.98
21664;BME280;10993;52.510;13.456;2023-02-12T17:17:06;56647.84;;;-146.93;72.58
21664;BME280;10993;52.510;13.456;2023-02-12T17:22:16;56698.47;;;-146.93;72.26
21664;BME280;10993;52.510;13.456;2023-02-12T17:27:17;56702.53;;;-146.93;72.37
21664;BME280;10993;52.510;13.456;2023-02-12T17:32:19;56682.28;;;-146.93;72.58
21664;BME280;10993;52.510;13.456;2023-02-12T17:37:20;56666.06;;;-146.93;72.50
21664;BME280;10993;52.510;13.456;2023-02-12T17:42:21;56684.31;;;-146.93;72.66
21664;BME280;10993;52.510;13.456;2023-02-12T17:47:23;56666.06;;;-146.93;73.08
21664;BME280;10993;52.510;13.456;2023-02-12T17:52:23;56637.72;;;-146.93;74.85
21664;BME280;10993;52.510;13.456;2023-02-12T17:57:23;56676.19;;;-146.93;75.98
21664;BME280;10993;52.510;13.456;2023-02-12T18:02:25;56680.25;;;-146.93;76.02
21664;BME280;10993;52.510;13.456;2023-02-12T18:07:26;57322.16;;;-146.93;77.07
21664;BME280;10993;52.510;13.456;2023-02-12T18:12:26;56651.91;;;-146.93;78.61
21664;BME280;10993;52.510;13.456;2023-02-12T18:17:28;56653.94;;;-146.93;80.11
21664;BME280;10993;52.510;13.456;2023-02-12T18:22:28;56759.22;;;-146.93;81.24
21664;BME280;10993;52.510;13.456;2023-02-12T18:27:28;56641.78;;;-146.93;82.47
21664;BME280;10993;52.510;13.456;2023-02-12T18:32:30;56668.09;;;-146.93;82.72
21664;BME280;10993;52.510;13.456;2023-02-12T18:37:31;56662.03;;;-146.93;83.44
21664;BME280;10993;52.510;13.456;2023-02-12T18:42:31;56605.34;;;-146.93;83.32
21664;BME280;10993;52.510;13.456;2023-02-12T18:47:33;56609.38;;;-146.93;83.62
21664;BME280;10993;52.510;13.456;2023-02-12T18:52:34;56627.59;;;-146.93;83.85
21664;BME280;10993;52.510;13.456;2023-02-12T18:57:36;56637.72;;;-146.93;84.27
21664;BME280;10993;52.510;13.456;2023-02-12T19:02:41;56651.91;;;-146.93;85.18
21664;BME280;10993;52.510;13.456;2023-02-12T19:07:41;56591.16;;;-146.93;85.32
21664;BME280;10993;52.510;13.456;2023-02-12T19:12:41;56607.34;;;-146.93;85.56
21664;BME280;10993;52.510;13.456;2023-02-12T19:17:43;56603.31;;;-146.93;86.11
21664;BME280;10993;52.510;13.456;2023-02-12T19:22:44;56629.63;;;-146.93;85.66
21664;BME280;10993;52.510;13.456;2023-02-12T19:27:44;56645.81;;;-146.93;85.73
21664;BME280;10993;52.510;13.456;2023-02-12T19:32:46;56601.28;;;-146.93;85.99
21664;BME280;10993;52.510;13.456;2023-02-12T19:37:46;56627.59;;;-146.93;86.53
21664;BME280;10993;52.510;13.456;2023-02-12T19:42:47;56637.72;;;-146.93;86.19
21664;BME280;10993;52.510;13.456;2023-02-12T19:47:49;56639.75;;;-146.93;85.96
21664;BME280;10993;52.510;13.456;2023-02-12T19:52:51;56627.59;;;-146.93;85.60
21664;BME280;10993;52.510;13.456;2023-02-12T19:57:51;56662.03;;;-146.93;84.80
21664;BME280;10993;52.510;13.456;2023-02-12T20:02:53;56631.66;;;-146.93;86.03
21664;BME280;10993;52.510;13.456;2023-02-12T20:07:53;56627.59;;;-146.93;86.26
21664;BME280;10993;52.510;13.456;2023-02-12T20:12:53;56621.53;;;-146.93;87.07
21664;BME280;10993;52.510;13.456;2023-02-12T20:17:55;56475.75;;;-146.93;87.19
21664;BME280;10993;52.510;13.456;2023-02-12T20:22:55;56657.97;;;-146.93;86.97
21664;BME280;10993;52.510;13.456;2023-02-12T20:27:56;56498.03;;;-146.93;87.91
21664;BME280;10993;52.510;13.456;2023-02-12T20:32:58;56676.19;;;-146.93;87.94
21664;BME280;10993;52.510;13.456;2023-02-12T20:37:58;56631.66;;;-146.93;88.17
21664;BME280;10993;52.510;13.456;2023-02-12T20:42:59;56631.66;;;-146.93;88.48
21664;BME280;10993;52.510;13.456;2023-02-12T20:48:01;56581.03;;;-146.93;88.53
21664;BME280;10993;52.510;13.456;2023-02-12T20:53:01;56607.34;;;-146.93;89.49
21664;BME280;10993;52.510;13.456;2023-02-12T20:58:01;56653.94;;;-146.93;89.13
21664;BME280;10993;52.510;13.456;2023-02-12T21:03:03;56637.72;;;-146.93;89.07
21664;BME280;10993;52.510;13.456;2023-02-12T21:08:05;57026.50;;;-146.93;89.32
21664;BME280;10993;52.510;13.456;2023-02-12T21:13:05;56504.09;;;-146.93;89.62
21664;BME280;10993;52.510;13.456;2023-02-12T21:18:07;56605.34;;;-146.93;90.19
21664;BME280;10993;52.510;13.456;2023-02-12T21:23:07;56491.94;;;-146.93;90.08
21664;BME280;10993;52.510;13.456;2023-02-12T21:28:07;56629.63;;;-146.93;89.84
21664;BME280;10993;52.510;13.456;2023-02-12T21:33:09;56672.16;;;-146.93;89.57
21664;BME280;10993;52.510;13.456;2023-02-12T21:38:09;56641.78;;;-146.93;88.90
21664;BME280;10993;52.510;13.456;2023-02-12T21:43:10;56641.78;;;-146.93;88.63
21664;BME280;10993;52.510;13.456;2023-02-12T21:48:11;56611.41;;;-146.93;88.72
21664;BME280;10993;52.510;13.456;2023-02-12T21:53:12;56641.78;;;-146.93;88.74
21664;BME280;10993;52.510;13.456;2023-02-12T21:58:13;56645.81;;;-146.93;88.67
21664;BME280;10993;52.510;13.456;2023-02-12T22:03:14;56633.69;;;-146.93;88.67
21664;BME280;10993;52.510;13.456;2023-02-12T22:08:15;56645.81;;;-146.93;88.37
21664;BME280;10993;52.510;13.456;2023-02-12T22:13:15;56641.78;;;-146.93;88.62
21664;BME280;10993;52.510;13.456;2023-02-12T22:18:17;56560.78;;;-146.93;87.98
21664;BME280;10993;52.510;13.456;2023-02-12T22:23:17;56625.59;;;-146.93;88.54
21664;BME280;10993;52.510;13.456;2023-02-12T22:28:18;56623.56;;;-146.93;88.47
21664;BME280;10993;52.510;13.456;2023-02-12T22:33:19;56672.16;;;-146.93;88.88
21664;BME280;10993;52.510;13.456;2023-02-12T22:38:20;56647.84;;;-146.93;88.35
21664;BME280;10993;52.510;13.456;2023-02-12T22:43:20;56581.03;;;-146.93;89.12
21664;BME280;10993;52.510;13.456;2023-02-12T22:48:22;56631.66;;;-146.93;89.32
21664;BME280;10993;52.510;13.456;2023-02-12T22:53:23;56645.81;;;-146.93;89.05
21664;BME280;10993;52.510;13.456;2023-02-12T22:58:24;56655.94;;;-146.93;89.82
21664;BME280;10993;52.510;13.456;2023-02-12T23:03:27;56633.69;;;-146.93;89.40
21664;BME280;10993;52.510;13.456;2023-02-12T23:08:28;56617.47;;;-146.93;89.30
21664;BME280;10993;52.510;13.456;2023-02-12T23:13:28;56645.81;;;-146.93;89.67
21664;BME280;10993;52.510;13.456;2023-02-12T23:18:30;56615.47;;;-146.93;89.09
21664;BME280;10993;52.510;13.456;2023-02-12T23:23:31;56609.38;;;-146.93;88.90
21664;BME280;10993;52.510;13.456;2023-02-12T23:28:31;56649.88;;;-146.93;88.47
21664;BME280;10993;52.510;13.456;2023-02-12T23:33:33;56645.81;;;-146.93;88.70
21664;BME280;10993;52.510;13.456;2023-02-12T23:38:36;56672.16;;;-146.93;88.42
21664;BME280;10993;52.510;13.456;2023-02-12T23:43:36;56649.88;;;-146.93;87.86
21664;BME280;10993;52.510;13.456;2023-02-12T23:48:38;56668.09;;;-146.93;87.61
21664;BME280;10993;52.510;13.456;2023-02-12T23:53:39;56678.22;;;-146.93;87.11
21664;BME280;10993;52.510;13.456;2023-02-12T23:58:39;56664.06;;;-146.93;87.32
